Weather at Abacus Tower Heliport

Public forecast

Using degrees Fahrenheit for public forecast. Weather courtesy of forecast.io.

Closest aviation weather report (METAR) to Abacus Tower Heliport

Closest report is Phoenix Sky Harbor International Airport, 4.3 nm (8.0 km) SE.

2024/06/13 10:51 (retrieved 13 minutes ago)

KPHX 131051Z 10005KT 10SM BKN200 31/00 A2982 RMK AO2 SLP073 T03110000

Closest aviation forecast (TAF) to Abacus Tower Heliport

Closest forecast is Phoenix Sky Harbor International Airport, 4.3 nm (8.0 km) SE.

2024/06/13 09:48 Ammendment (retrieved 1 hour ago)

TAF AMD KPHX 130844Z 1309/1412 24005KT P6SM SCT180 FM131200 09005KT P6SM SCT180 FM131600 VRB04KT P6SM BKN180 FM132100 28011G20KT P6SM BKN180 FM140300 27006KT P6SM SCT180 FM140700 09005KT P6SM FEW180